createdAt,value
2024-04-06T00:02:24.050Z,1.20
2024-04-06T00:07:30.737Z,0.90
2024-04-06T00:12:37.620Z,1.20
2024-04-06T00:17:44.361Z,1.10
2024-04-06T00:22:51.028Z,1.00
2024-04-06T00:27:57.765Z,1.10
2024-04-06T00:33:04.657Z,1.30
2024-04-06T00:38:11.392Z,0.90
2024-04-06T00:43:18.080Z,1.60
2024-04-06T00:48:24.884Z,1.40
2024-04-06T00:53:31.753Z,1.20
2024-04-06T00:58:42.930Z,1.10
2024-04-06T01:03:50.107Z,1.20
2024-04-06T01:08:56.939Z,1.60
2024-04-06T01:14:03.967Z,1.40
2024-04-06T01:19:10.676Z,1.20
2024-04-06T01:24:34.058Z,1.40
2024-04-06T01:29:42.366Z,1.30
2024-04-06T01:34:49.448Z,2.00
2024-04-06T01:39:56.188Z,1.20
2024-04-06T01:45:03.956Z,1.50
2024-04-06T01:50:11.756Z,1.60
2024-04-06T01:55:18.687Z,1.30
2024-04-06T02:00:28.447Z,1.60
2024-04-06T02:05:37.978Z,1.40
2024-04-06T02:10:45.112Z,1.90
2024-04-06T02:15:51.846Z,2.40
2024-04-06T02:20:58.847Z,1.90
2024-04-06T02:26:06.086Z,1.80
2024-04-06T02:31:12.877Z,3.30
2024-04-06T02:36:19.893Z,2.50
2024-04-06T02:41:26.742Z,1.60
2024-04-06T02:46:33.433Z,1.50
2024-04-06T02:51:40.398Z,1.80
2024-04-06T02:56:47.040Z,1.50
2024-04-06T03:01:53.904Z,2.10
2024-04-06T03:07:01.604Z,1.80
2024-04-06T03:12:13.861Z,1.80
2024-04-06T03:17:20.809Z,1.80
2024-04-06T03:22:27.544Z,1.50
2024-04-06T03:27:34.573Z,1.90
2024-04-06T03:32:41.487Z,2.20
2024-04-06T03:37:49.245Z,2.00
2024-04-06T03:43:00.356Z,2.10
2024-04-06T03:48:09.498Z,2.00
2024-04-06T03:53:30.409Z,2.00
2024-04-06T03:58:37.204Z,1.80
2024-04-06T04:03:43.907Z,2.30
2024-04-06T04:08:50.596Z,2.60
2024-04-06T04:14:00.573Z,3.00
2024-04-06T04:19:07.260Z,3.40
2024-04-06T04:24:13.929Z,2.50
2024-04-06T04:29:20.968Z,3.00
2024-04-06T04:34:27.822Z,3.00
2024-04-06T04:39:34.951Z,3.00
2024-04-06T04:44:46.364Z,3.60
2024-04-06T04:49:53.424Z,4.40
2024-04-06T04:55:00.638Z,5.40
2024-04-06T05:00:11.112Z,5.80
2024-04-06T05:05:18.015Z,5.80
2024-04-06T05:10:25.294Z,8.10
2024-04-06T05:15:31.984Z,9.40
2024-04-06T05:20:38.804Z,8.20
2024-04-06T05:25:45.790Z,6.90
2024-04-06T05:30:53.878Z,5.60
2024-04-06T05:36:02.785Z,5.20
2024-04-06T05:41:09.879Z,4.50
2024-04-06T05:46:17.331Z,4.10
2024-04-06T05:51:25.100Z,6.50
2024-04-06T05:56:31.980Z,7.60
2024-04-06T06:01:38.677Z,6.60
2024-04-06T06:06:45.369Z,5.60
2024-04-06T06:11:55.017Z,4.00
2024-04-06T06:17:01.843Z,4.30
2024-04-06T06:22:10.772Z,5.10
2024-04-06T06:27:18.162Z,4.70
2024-04-06T06:32:34.487Z,4.70
2024-04-06T06:42:51.419Z,6.40
2024-04-06T06:47:58.025Z,4.80
2024-04-06T06:53:04.953Z,4.80
2024-04-06T06:58:11.709Z,3.10
2024-04-06T07:03:19.119Z,3.50
2024-04-06T07:08:25.878Z,2.70
2024-04-06T07:13:34.186Z,2.90
2024-04-06T07:18:42.434Z,2.60
2024-04-06T07:23:49.210Z,2.50
2024-04-06T07:28:57.741Z,2.60
2024-04-06T07:34:04.516Z,2.40
2024-04-06T07:44:22.157Z,1.50
2024-04-06T07:49:30.190Z,2.20
2024-04-06T07:54:36.784Z,2.00
2024-04-06T07:59:43.358Z,2.00
2024-04-06T08:04:57.798Z,2.30
2024-04-06T08:10:36.848Z,2.10
2024-04-06T08:15:51.096Z,2.20
2024-04-06T08:20:58.178Z,2.20
2024-04-06T08:26:05.051Z,2.10
2024-04-06T08:31:11.944Z,1.70
2024-04-06T08:36:24.211Z,1.90
2024-04-06T08:41:32.602Z,1.60
2024-04-06T08:46:39.505Z,1.60
2024-04-06T08:51:51.519Z,1.60
2024-04-06T08:57:01.453Z,1.90
2024-04-06T09:02:08.342Z,1.90
2024-04-06T09:07:15.284Z,2.20
2024-04-06T09:12:22.610Z,2.40
2024-04-06T09:17:30.468Z,1.90
2024-04-06T09:22:37.534Z,1.60
2024-04-06T09:27:50.030Z,2.00
2024-04-06T09:32:59.536Z,2.10
2024-04-06T09:38:10.122Z,2.00
2024-04-06T09:43:17.299Z,1.40
2024-04-06T09:48:26.096Z,1.70
2024-04-06T09:53:33.163Z,1.40
2024-04-06T09:58:48.009Z,1.80
2024-04-06T10:03:54.869Z,1.90
2024-04-06T10:09:03.419Z,2.10
2024-04-06T10:14:10.435Z,1.50
2024-04-06T10:19:18.826Z,1.50
2024-04-06T10:24:29.891Z,1.60
2024-04-06T10:29:37.712Z,2.50
2024-04-06T10:39:52.552Z,1.30
2024-04-06T10:44:59.110Z,1.30
2024-04-06T10:50:09.268Z,1.70
2024-04-06T10:55:20.450Z,1.40
2024-04-06T11:00:28.476Z,1.50
2024-04-06T11:05:37.564Z,1.40
2024-04-06T11:10:44.182Z,2.00
2024-04-06T11:15:51.540Z,1.50
2024-04-06T11:20:58.138Z,1.70
2024-04-06T11:26:06.753Z,1.40
2024-04-06T11:31:14.182Z,1.90
2024-04-06T11:36:20.772Z,4.60
2024-04-06T11:41:27.319Z,1.90
2024-04-06T11:46:36.071Z,2.50
2024-04-06T11:51:45.303Z,1.80
2024-04-06T11:56:51.936Z,2.00
2024-04-06T12:01:59.742Z,1.20
2024-04-06T12:07:07.738Z,1.40
2024-04-06T12:12:14.860Z,1.60
2024-04-06T12:17:28.203Z,1.40
2024-04-06T12:22:34.759Z,1.00
2024-04-06T12:27:41.545Z,2.20
2024-04-06T12:32:48.243Z,1.50
2024-04-06T12:37:56.002Z,1.90
2024-04-06T12:43:02.562Z,1.70
2024-04-06T12:48:10.096Z,1.50
2024-04-06T12:53:17.349Z,2.00
2024-04-06T12:58:24.940Z,2.00
2024-04-06T13:03:31.845Z,1.90
2024-04-06T13:08:39.523Z,2.10
2024-04-06T13:13:46.186Z,1.10
2024-04-06T13:18:52.858Z,1.20
2024-04-06T13:23:59.513Z,1.10
2024-04-06T13:29:06.344Z,1.10
2024-04-06T13:34:12.923Z,1.20
2024-04-06T13:39:21.212Z,2.10
2024-04-06T13:49:33.320Z,2.10
2024-04-06T13:54:40.727Z,1.40
2024-04-06T13:59:47.552Z,1.80
2024-04-06T14:04:54.088Z,1.60
2024-04-06T14:10:00.904Z,1.60
2024-04-06T14:15:09.856Z,1.80
2024-04-06T14:20:16.893Z,1.30
2024-04-06T14:25:23.486Z,1.30
2024-04-06T14:30:33.782Z,1.90
2024-04-06T14:35:41.296Z,1.40
2024-04-06T14:40:47.816Z,2.10
2024-04-06T14:45:54.699Z,1.10
2024-04-06T14:51:01.590Z,1.90
2024-04-06T14:56:10.328Z,1.30
2024-04-06T15:01:18.941Z,1.70
2024-04-06T15:06:25.920Z,1.60
2024-04-06T15:11:38.159Z,2.10
2024-04-06T15:16:45.612Z,2.00
2024-04-06T15:21:53.193Z,1.60
2024-04-06T15:26:59.854Z,4.60
2024-04-06T15:32:07.752Z,2.40
2024-04-06T15:37:16.565Z,2.80
2024-04-06T15:42:24.534Z,1.70
2024-04-06T15:47:31.523Z,1.90
2024-04-06T15:52:38.155Z,2.60
2024-04-06T15:57:44.750Z,3.30
2024-04-06T16:02:51.337Z,8.10
2024-04-06T16:07:57.893Z,9.00
2024-04-06T16:13:04.627Z,5.00
2024-04-06T16:18:11.536Z,4.80
2024-04-06T16:23:18.164Z,4.30
2024-04-06T16:28:24.811Z,4.50
2024-04-06T16:33:32.354Z,5.20
2024-04-06T16:38:38.930Z,4.60
2024-04-06T16:43:47.239Z,2.50
2024-04-06T16:48:53.779Z,3.20
2024-04-06T16:54:00.280Z,2.50
2024-04-06T16:59:06.803Z,2.00
2024-04-06T17:04:13.384Z,2.70
2024-04-06T17:09:19.978Z,2.60
2024-04-06T17:14:27.327Z,2.80
2024-04-06T17:19:35.793Z,4.30
2024-04-06T17:24:44.119Z,5.90
2024-04-06T17:29:50.729Z,5.50
2024-04-06T17:34:57.608Z,5.20
2024-04-06T17:40:05.486Z,5.90
2024-04-06T17:45:12.905Z,4.40
2024-04-06T17:50:20.686Z,7.00
2024-04-06T17:55:27.763Z,6.00
2024-04-06T18:00:34.333Z,6.50
2024-04-06T18:05:41.633Z,5.60
2024-04-06T18:10:50.163Z,5.00
2024-04-06T18:16:02.432Z,4.50
2024-04-06T18:21:11.770Z,4.10
2024-04-06T18:26:18.690Z,5.70
2024-04-06T18:31:25.793Z,5.10
2024-04-06T18:36:33.573Z,4.30
2024-04-06T18:41:41.018Z,6.00
2024-04-06T18:46:47.753Z,3.90
2024-04-06T18:51:55.004Z,4.10
2024-04-06T18:57:04.775Z,5.20
2024-04-06T19:02:14.122Z,5.80
2024-04-06T19:07:24.558Z,5.10
2024-04-06T19:12:31.418Z,5.80
2024-04-06T19:17:41.871Z,5.90
2024-04-06T19:22:49.171Z,6.10
2024-04-06T19:27:56.513Z,6.80
2024-04-06T19:33:04.382Z,5.80
2024-04-06T19:38:11.617Z,7.30
2024-04-06T19:43:18.847Z,7.70
2024-04-06T19:48:25.781Z,8.30
2024-04-06T19:53:33.344Z,8.60
2024-04-06T19:58:41.334Z,8.50
2024-04-06T20:03:48.219Z,9.40
2024-04-06T20:09:08.230Z,9.80
2024-04-06T20:14:15.024Z,7.90
2024-04-06T20:19:22.260Z,8.70
2024-04-06T20:24:48.598Z,7.30
2024-04-06T20:29:55.555Z,9.00
2024-04-06T20:35:02.723Z,8.70
2024-04-06T20:40:13.844Z,9.20
2024-04-06T20:45:20.618Z,8.40
2024-04-06T20:50:27.927Z,9.10
2024-04-06T20:55:38.151Z,8.30
2024-04-06T21:00:47.720Z,9.70
2024-04-06T21:05:54.780Z,9.00
2024-04-06T21:11:03.716Z,8.10
2024-04-06T21:16:14.408Z,9.20
2024-04-06T21:21:21.232Z,10.70
2024-04-06T21:26:28.087Z,10.40
2024-04-06T21:31:35.506Z,10.60
2024-04-06T21:36:43.407Z,11.70
2024-04-06T21:41:50.457Z,12.20
2024-04-06T21:47:00.709Z,11.00
2024-04-06T21:52:08.474Z,10.40
2024-04-06T21:57:15.156Z,10.90
2024-04-06T22:02:22.287Z,13.70
2024-04-06T22:07:29.111Z,19.40
2024-04-06T22:12:36.661Z,13.90
2024-04-06T22:17:43.483Z,13.40
2024-04-06T22:22:50.495Z,13.30
2024-04-06T22:27:57.223Z,13.80
2024-04-06T22:33:04.192Z,14.40
2024-04-06T22:38:10.897Z,15.00
2024-04-06T22:43:17.514Z,15.00
2024-04-06T22:48:24.261Z,14.60
2024-04-06T22:53:31.072Z,14.70
2024-04-06T22:58:38.213Z,14.60
2024-04-06T23:03:44.903Z,15.90
2024-04-06T23:08:51.701Z,16.30
2024-04-06T23:13:58.978Z,15.10
2024-04-06T23:19:05.721Z,16.60
2024-04-06T23:24:12.687Z,16.20
2024-04-06T23:29:19.354Z,15.20
2024-04-06T23:34:26.121Z,17.30
2024-04-06T23:39:33.386Z,17.10
2024-04-06T23:44:40.117Z,15.50
2024-04-06T23:49:53.269Z,16.30
2024-04-06T23:55:02.978Z,15.20
